createdAt,value
2018-07-24T00:00:17.745Z,84.71
2018-07-24T00:01:17.739Z,84.55
2018-07-24T00:02:17.678Z,85.66
2018-07-24T00:03:17.561Z,85.86
2018-07-24T00:04:17.888Z,85.25
2018-07-24T00:05:17.763Z,85.60
2018-07-24T00:06:17.605Z,86.27
2018-07-24T00:07:17.681Z,86.21
2018-07-24T00:08:17.863Z,86.67
2018-07-24T00:09:17.799Z,86.91
2018-07-24T00:10:17.549Z,87.12
2018-07-24T00:11:17.602Z,87.86
2018-07-24T00:12:18.693Z,87.56
2018-07-24T00:13:17.675Z,89.07
2018-07-24T00:14:17.687Z,87.66
2018-07-24T00:15:17.636Z,87.56
2018-07-24T00:16:17.836Z,87.66
2018-07-24T00:17:18.589Z,88.17
2018-07-24T00:18:17.605Z,88.10
2018-07-24T00:19:18.643Z,88.41
2018-07-24T00:20:17.714Z,88.10
2018-07-24T00:21:16.236Z,87.64
2018-07-24T00:22:17.287Z,88.75
2018-07-24T00:23:17.146Z,88.01
2018-07-24T00:24:17.148Z,86.59
2018-07-24T00:25:18.120Z,86.59
2018-07-24T00:26:17.227Z,85.84
2018-07-24T00:27:17.170Z,86.41
2018-07-24T00:28:17.175Z,86.15
2018-07-24T00:29:17.252Z,86.55
2018-07-24T00:30:18.216Z,87.15
2018-07-24T00:31:17.264Z,86.59
2018-07-24T00:32:15.599Z,85.99
2018-07-24T00:33:17.134Z,87.50
2018-07-24T00:34:18.097Z,87.64
2018-07-24T00:35:17.143Z,88.85
2018-07-24T00:36:17.236Z,89.36
2018-07-24T00:37:18.226Z,89.76
2018-07-24T00:38:17.056Z,89.62
2018-07-24T00:39:18.319Z,89.12
2018-07-24T00:40:17.303Z,89.32
2018-07-24T00:41:17.195Z,89.01
2018-07-24T00:42:17.275Z,89.42
2018-07-24T00:43:15.768Z,84.19
2018-07-24T00:44:17.322Z,85.56
2018-07-24T00:45:17.197Z,84.35
2018-07-24T00:46:17.742Z,84.75
2018-07-24T00:47:17.380Z,85.60
2018-07-24T00:48:17.142Z,85.19
2018-07-24T00:49:17.178Z,86.75
2018-07-24T00:50:18.342Z,88.01
2018-07-24T00:51:17.744Z,87.30
2018-07-24T00:52:18.721Z,88.21
2018-07-24T00:53:17.202Z,87.19
2018-07-24T00:54:17.161Z,87.54
2018-07-24T00:55:17.184Z,89.36
2018-07-24T00:56:17.595Z,88.96
2018-07-24T00:57:17.482Z,89.10
2018-07-24T00:58:17.160Z,89.00
2018-07-24T00:59:18.251Z,88.64
2018-07-24T01:00:17.301Z,90.66
2018-07-24T01:01:17.706Z,90.86
2018-07-24T01:02:17.354Z,91.87
2018-07-24T01:03:16.249Z,90.72
2018-07-24T01:04:17.382Z,88.06
2018-07-24T01:05:17.289Z,85.46
2018-07-24T01:06:17.664Z,83.00
2018-07-24T01:07:17.693Z,82.15
2018-07-24T01:08:16.778Z,81.85
2018-07-24T01:09:16.801Z,81.79
2018-07-24T01:10:16.831Z,81.68
2018-07-24T01:11:16.681Z,83.24
2018-07-24T01:12:16.733Z,83.88
2018-07-24T01:13:16.605Z,84.39
2018-07-24T01:14:16.745Z,85.84
2018-07-24T01:15:16.958Z,84.57
2018-07-24T01:16:16.924Z,86.19
2018-07-24T01:17:16.791Z,88.45
2018-07-24T01:18:17.707Z,89.32
2018-07-24T01:19:16.527Z,88.35
2018-07-24T01:20:16.723Z,88.70
2018-07-24T01:21:16.949Z,88.39
2018-07-24T01:22:16.785Z,88.94
2018-07-24T01:23:17.476Z,89.45
2018-07-24T01:24:16.790Z,91.87
2018-07-24T01:25:17.777Z,92.08
2018-07-24T01:26:17.163Z,90.86
2018-07-24T01:27:17.130Z,91.16
2018-07-24T01:28:16.681Z,91.77
2018-07-24T01:29:15.003Z,92.18
2018-07-24T01:30:16.627Z,92.08
2018-07-24T01:31:16.625Z,92.38
2018-07-24T01:32:16.736Z,92.38
2018-07-24T01:33:16.710Z,91.77
2018-07-24T01:34:16.800Z,92.12
2018-07-24T01:35:17.702Z,92.52
2018-07-24T01:36:16.968Z,92.02
2018-07-24T01:37:16.754Z,92.12
2018-07-24T01:38:16.839Z,92.42
2018-07-24T01:39:16.675Z,92.72
2018-07-24T01:40:17.730Z,92.57
2018-07-24T01:41:17.929Z,92.36
2018-07-24T01:42:16.800Z,93.27
2018-07-24T01:43:16.717Z,93.38
2018-07-24T01:44:16.677Z,92.26
2018-07-24T01:45:16.917Z,93.27
2018-07-24T01:46:16.727Z,93.07
2018-07-24T01:47:16.704Z,93.38
2018-07-24T01:48:16.671Z,92.71
2018-07-24T01:49:17.260Z,93.02
2018-07-24T01:50:16.652Z,94.43
2018-07-24T01:51:17.717Z,94.34
2018-07-24T01:52:16.508Z,93.88
2018-07-24T01:53:16.701Z,93.78
2018-07-24T01:54:16.877Z,92.97
2018-07-24T01:55:17.132Z,93.03
2018-07-24T01:56:16.260Z,93.03
2018-07-24T01:57:16.236Z,90.31
2018-07-24T01:58:16.198Z,86.04
2018-07-24T01:59:16.327Z,84.39
2018-07-24T02:00:16.146Z,81.73
2018-07-24T02:01:16.189Z,80.47
2018-07-24T02:02:16.404Z,78.49
2018-07-24T02:03:16.275Z,76.40
2018-07-24T02:04:17.233Z,75.86
2018-07-24T02:05:14.572Z,75.46
2018-07-24T02:06:16.143Z,75.46
2018-07-24T02:07:16.278Z,74.01
2018-07-24T02:08:16.388Z,74.32
2018-07-24T02:09:17.213Z,73.81
2018-07-24T02:10:17.382Z,74.01
2018-07-24T02:11:16.245Z,73.41
2018-07-24T02:12:16.215Z,73.11
2018-07-24T02:13:17.210Z,73.11
2018-07-24T02:14:16.226Z,73.21
2018-07-24T02:15:16.227Z,72.10
2018-07-24T02:16:14.481Z,73.61
2018-07-24T02:17:16.450Z,73.31
2018-07-24T02:18:17.138Z,72.91
2018-07-24T02:19:16.246Z,72.41
2018-07-24T02:20:17.173Z,72.30
2018-07-24T02:21:16.243Z,71.36
2018-07-24T02:22:16.227Z,71.56
2018-07-24T02:23:16.236Z,71.33
2018-07-24T02:24:16.110Z,70.73
2018-07-24T02:25:16.084Z,71.26
2018-07-24T02:26:17.291Z,73.07
2018-07-24T02:27:14.252Z,71.56
2018-07-24T02:28:16.714Z,72.20
2018-07-24T02:29:14.323Z,72.61
2018-07-24T02:30:15.155Z,73.11
2018-07-24T02:31:16.177Z,72.91
2018-07-24T02:32:17.355Z,74.32
2018-07-24T02:33:16.302Z,74.52
2018-07-24T02:34:16.136Z,75.05
2018-07-24T02:35:16.168Z,75.09
2018-07-24T02:36:15.300Z,76.03
2018-07-24T02:37:16.174Z,75.23
2018-07-24T02:38:14.530Z,75.70
2018-07-24T02:39:15.822Z,74.49
2018-07-24T02:40:15.761Z,74.15
2018-07-24T02:41:15.717Z,73.85
2018-07-24T02:42:15.792Z,73.85
2018-07-24T02:43:15.649Z,73.51
2018-07-24T02:44:16.605Z,73.31
2018-07-24T02:45:15.625Z,73.41
2018-07-24T02:46:16.549Z,73.51
2018-07-24T02:47:16.788Z,73.44
2018-07-24T02:48:15.785Z,73.95
2018-07-24T02:49:15.782Z,73.65
2018-07-24T02:50:15.823Z,73.85
2018-07-24T02:51:16.735Z,75.26
2018-07-24T02:52:15.694Z,76.10
2018-07-24T02:53:16.114Z,76.03
2018-07-24T02:54:16.137Z,77.28
2018-07-24T02:55:15.717Z,78.59
2018-07-24T02:56:15.789Z,79.43
2018-07-24T02:57:16.744Z,78.92
2018-07-24T02:58:15.760Z,80.92
2018-07-24T02:59:16.750Z,81.05
2018-07-24T03:00:15.790Z,81.67
2018-07-24T03:01:15.818Z,82.61
2018-07-24T03:02:16.893Z,83.96
2018-07-24T03:03:16.030Z,84.31
2018-07-24T03:04:16.837Z,85.05
2018-07-24T03:05:14.158Z,85.36
2018-07-24T03:06:15.634Z,86.61
2018-07-24T03:07:16.756Z,87.62
2018-07-24T03:08:15.987Z,86.41
2018-07-24T03:09:15.143Z,87.36
2018-07-24T03:10:15.804Z,88.27
2018-07-24T03:11:15.992Z,88.88
2018-07-24T03:12:15.711Z,88.11
2018-07-24T03:13:15.680Z,90.44
2018-07-24T03:14:15.762Z,90.03
2018-07-24T03:15:15.805Z,89.23
2018-07-24T03:16:15.930Z,90.28
2018-07-24T03:17:15.606Z,92.10
2018-07-24T03:18:15.852Z,91.39
2018-07-24T03:19:15.826Z,92.10
2018-07-24T03:20:15.675Z,90.38
2018-07-24T03:21:15.614Z,90.69
2018-07-24T03:22:15.667Z,91.24
2018-07-24T03:23:15.508Z,91.13
2018-07-24T03:24:16.246Z,91.24
2018-07-24T03:25:15.287Z,92.14
2018-07-24T03:26:16.301Z,91.99
2018-07-24T03:27:16.278Z,92.60
2018-07-24T03:28:15.296Z,93.10
2018-07-24T03:29:15.081Z,92.09
2018-07-24T03:30:15.084Z,92.84
2018-07-24T03:31:16.187Z,92.94
2018-07-24T03:32:15.253Z,92.74
2018-07-24T03:33:15.419Z,94.37
2018-07-24T03:34:15.324Z,94.57
2018-07-24T03:35:15.171Z,94.57
2018-07-24T03:36:16.110Z,94.87
2018-07-24T03:37:15.239Z,94.67
2018-07-24T03:38:15.166Z,95.38
2018-07-24T03:39:15.351Z,95.32
2018-07-24T03:40:15.141Z,94.82
2018-07-24T03:41:15.238Z,94.61
2018-07-24T03:42:16.295Z,95.99
2018-07-24T03:43:14.756Z,96.19
2018-07-24T03:44:15.305Z,95.89
2018-07-24T03:45:15.125Z,95.18
2018-07-24T03:46:15.134Z,95.18
2018-07-24T03:47:16.276Z,95.48
2018-07-24T03:48:15.141Z,95.07
2018-07-24T03:49:15.227Z,94.31
2018-07-24T03:50:15.100Z,93.80
2018-07-24T03:51:15.659Z,94.41
2018-07-24T03:52:15.070Z,95.12
2018-07-24T03:53:15.124Z,95.22
2018-07-24T03:54:13.374Z,95.12
2018-07-24T03:55:15.117Z,95.22
2018-07-24T03:56:13.251Z,95.83
2018-07-24T03:57:15.371Z,95.94
2018-07-24T03:58:13.711Z,96.14
2018-07-24T03:59:15.202Z,95.94
2018-07-24T04:00:15.253Z,96.23
2018-07-24T04:01:15.784Z,95.83
2018-07-24T04:02:15.091Z,95.78
2018-07-24T04:03:15.175Z,95.78
2018-07-24T04:04:15.120Z,95.94
2018-07-24T04:05:13.384Z,95.87
2018-07-24T04:06:14.247Z,96.14
2018-07-24T04:07:16.311Z,96.70
2018-07-24T04:08:14.292Z,96.09
2018-07-24T04:09:14.259Z,96.39
2018-07-24T04:10:14.856Z,96.30
2018-07-24T04:11:14.742Z,96.44
2018-07-24T04:12:14.961Z,96.03
2018-07-24T04:13:14.764Z,95.73
2018-07-24T04:14:14.618Z,95.94
2018-07-24T04:15:14.782Z,95.63
2018-07-24T04:16:13.075Z,95.73
2018-07-24T04:17:14.987Z,95.63
2018-07-24T04:18:14.798Z,95.73
2018-07-24T04:19:14.828Z,95.83
2018-07-24T04:20:14.742Z,95.73
2018-07-24T04:21:14.669Z,95.83
2018-07-24T04:22:14.820Z,95.63
2018-07-24T04:23:15.775Z,95.83
2018-07-24T04:24:14.663Z,96.03
2018-07-24T04:25:15.040Z,96.03
2018-07-24T04:26:14.676Z,96.44
2018-07-24T04:27:14.845Z,96.14
2018-07-24T04:28:15.826Z,96.30
2018-07-24T04:29:14.661Z,96.45
2018-07-24T04:30:14.677Z,96.15
2018-07-24T04:31:15.651Z,95.74
2018-07-24T04:32:12.960Z,95.84
2018-07-24T04:33:14.747Z,94.83
2018-07-24T04:34:16.027Z,95.64
2018-07-24T04:35:14.842Z,95.34
2018-07-24T04:36:15.765Z,95.74
2018-07-24T04:37:14.795Z,95.50
2018-07-24T04:38:14.799Z,94.98
2018-07-24T04:39:15.772Z,94.93
2018-07-24T04:40:14.760Z,94.68
2018-07-24T04:41:14.649Z,94.42
2018-07-24T04:42:15.768Z,94.53
2018-07-24T04:43:14.638Z,95.09
2018-07-24T04:44:14.680Z,95.70
2018-07-24T04:45:15.206Z,94.54
2018-07-24T04:46:14.698Z,94.84
2018-07-24T04:47:14.801Z,94.23
2018-07-24T04:48:14.614Z,93.32
2018-07-24T04:49:14.694Z,94.43
2018-07-24T04:50:14.738Z,93.93
2018-07-24T04:51:15.860Z,93.38
2018-07-24T04:52:14.582Z,91.61
2018-07-24T04:53:13.831Z,90.05
2018-07-24T04:54:14.630Z,88.90
2018-07-24T04:55:14.080Z,89.40
2018-07-24T04:56:13.583Z,88.25
2018-07-24T04:57:14.217Z,88.15
2018-07-24T04:58:14.107Z,89.42
2018-07-24T04:59:12.588Z,88.75
2018-07-24T05:00:14.380Z,88.51
2018-07-24T05:01:14.104Z,89.36
2018-07-24T05:02:14.200Z,88.65
2018-07-24T05:03:14.099Z,89.36
2018-07-24T05:04:14.131Z,89.46
2018-07-24T05:05:14.194Z,89.97
2018-07-24T05:06:14.051Z,89.97
2018-07-24T05:07:14.170Z,91.28
2018-07-24T05:08:14.092Z,90.27
2018-07-24T05:09:14.245Z,90.58
2018-07-24T05:10:12.555Z,90.23
2018-07-24T05:11:14.189Z,89.83
2018-07-24T05:12:14.174Z,88.97
2018-07-24T05:13:14.231Z,87.32
2018-07-24T05:14:14.085Z,85.17
2018-07-24T05:15:14.135Z,84.45
2018-07-24T05:16:14.156Z,79.91
2018-07-24T05:17:14.114Z,78.27
2018-07-24T05:18:14.106Z,78.27
2018-07-24T05:19:14.089Z,79.97
2018-07-24T05:20:14.170Z,78.73
2018-07-24T05:21:12.299Z,77.76
2018-07-24T05:22:14.115Z,79.41
2018-07-24T05:23:14.371Z,78.30
2018-07-24T05:24:15.084Z,78.54
2018-07-24T05:25:14.091Z,79.14
2018-07-24T05:26:14.206Z,79.85
2018-07-24T05:27:14.084Z,79.48
2018-07-24T05:28:14.145Z,79.54
2018-07-24T05:29:15.174Z,81.15
2018-07-24T05:30:14.145Z,79.85
2018-07-24T05:31:14.126Z,80.35
2018-07-24T05:32:12.129Z,80.65
2018-07-24T05:33:14.075Z,79.81
2018-07-24T05:34:15.013Z,79.00
2018-07-24T05:35:14.121Z,78.27
2018-07-24T05:36:15.076Z,78.70
2018-07-24T05:37:14.045Z,79.61
2018-07-24T05:38:15.048Z,78.30
2018-07-24T05:39:14.055Z,79.41
2018-07-24T05:40:13.104Z,79.71
2018-07-24T05:41:13.627Z,79.47
2018-07-24T05:42:14.527Z,79.17
2018-07-24T05:43:12.808Z,78.56
2018-07-24T05:44:13.569Z,78.06
2018-07-24T05:45:13.571Z,77.32
2018-07-24T05:46:13.644Z,76.45
2018-07-24T05:47:13.539Z,74.87
2018-07-24T05:48:13.658Z,74.03
2018-07-24T05:50:14.251Z,74.17
2018-07-24T05:51:21.222Z,74.33
2018-07-24T05:52:15.410Z,75.23
2018-07-24T05:53:14.789Z,73.30
2018-07-24T05:54:14.495Z,71.80
2018-07-24T05:55:15.901Z,71.92
2018-07-24T05:56:16.012Z,72.92
2018-07-24T05:57:14.667Z,73.33
2018-07-24T05:58:13.626Z,71.36
2018-07-24T05:59:13.570Z,67.80
2018-07-24T06:00:14.507Z,65.11
2018-07-24T06:01:13.629Z,64.75
2018-07-24T06:02:13.549Z,61.69
2018-07-24T06:03:13.650Z,61.80
2018-07-24T06:04:13.681Z,61.67
2018-07-24T06:05:14.656Z,60.08
2018-07-24T06:06:13.576Z,58.33
2018-07-24T06:07:13.620Z,58.17
2018-07-24T06:08:14.623Z,57.45
2018-07-24T06:09:14.602Z,57.38
2018-07-24T06:10:13.550Z,55.69
2018-07-24T06:11:13.664Z,57.55
2018-07-24T06:12:14.590Z,55.71
2018-07-24T06:13:13.658Z,56.70
2018-07-24T06:14:13.664Z,56.08
2018-07-24T06:15:13.601Z,55.56
2018-07-24T06:16:13.657Z,56.38
2018-07-24T06:17:13.535Z,56.21
2018-07-24T06:18:13.672Z,58.19
2018-07-24T06:19:14.564Z,56.48
2018-07-24T06:20:14.607Z,56.65
2018-07-24T06:21:13.614Z,55.04
2018-07-24T06:22:13.693Z,54.29
2018-07-24T06:23:13.640Z,54.91
2018-07-24T06:24:13.550Z,55.01
2018-07-24T06:25:13.573Z,55.21
2018-07-24T06:26:13.381Z,55.97
2018-07-24T06:27:13.157Z,54.79
2018-07-24T06:28:13.163Z,53.38
2018-07-24T06:29:13.129Z,53.87
2018-07-24T06:30:13.112Z,54.83
2018-07-24T06:31:13.234Z,52.95
2018-07-24T06:32:14.186Z,53.92
2018-07-24T06:33:13.304Z,52.34
2018-07-24T06:34:14.183Z,52.56
2018-07-24T06:35:13.185Z,53.05
2018-07-24T06:36:13.127Z,53.57
2018-07-24T06:37:13.081Z,53.40
2018-07-24T06:38:13.069Z,54.19
2018-07-24T06:39:13.082Z,53.97
2018-07-24T06:40:13.085Z,52.98
2018-07-24T06:41:13.151Z,53.30
2018-07-24T06:42:13.089Z,53.18
2018-07-24T06:43:12.106Z,52.78
2018-07-24T06:44:11.365Z,51.92
2018-07-24T06:45:13.099Z,54.10
2018-07-24T06:46:13.102Z,53.08
2018-07-24T06:47:13.120Z,50.90
2018-07-24T06:48:14.144Z,52.09
2018-07-24T06:49:13.127Z,51.99
2018-07-24T06:50:14.104Z,53.80
2018-07-24T06:51:13.140Z,52.58
2018-07-24T06:52:13.085Z,51.20
2018-07-24T06:53:13.083Z,51.45
2018-07-24T06:54:14.293Z,51.40
2018-07-24T06:55:11.306Z,49.50
2018-07-24T06:56:14.101Z,48.71
2018-07-24T06:57:13.219Z,50.88
2018-07-24T06:58:14.382Z,47.80
2018-07-24T06:59:13.100Z,50.07
2018-07-24T07:00:13.133Z,49.75
2018-07-24T07:01:13.175Z,48.71
2018-07-24T07:02:13.244Z,48.39
2018-07-24T07:03:13.322Z,49.30
2018-07-24T07:04:14.146Z,50.02
2018-07-24T07:05:13.558Z,48.54
2018-07-24T07:06:11.189Z,47.73
2018-07-24T07:07:13.306Z,48.22
2018-07-24T07:08:13.230Z,49.33
2018-07-24T07:09:13.546Z,48.17
2018-07-24T07:10:13.216Z,49.45
2018-07-24T07:11:13.188Z,47.97
2018-07-24T07:12:13.304Z,48.74
2018-07-24T07:13:13.733Z,49.01
2018-07-24T07:14:13.906Z,47.71
2018-07-24T07:15:12.768Z,48.25
2018-07-24T07:16:12.686Z,47.14
2018-07-24T07:17:11.590Z,48.20
2018-07-24T07:18:12.732Z,47.71
2018-07-24T07:19:13.752Z,48.13
2018-07-24T07:20:13.823Z,47.16
2018-07-24T07:21:12.616Z,48.61
2018-07-24T07:22:12.752Z,48.03
2018-07-24T07:23:12.723Z,49.38
2018-07-24T07:24:12.778Z,48.30
2018-07-24T07:25:12.662Z,48.03
2018-07-24T07:26:13.786Z,49.58
2018-07-24T07:27:12.737Z,46.88
2018-07-24T07:28:12.678Z,48.55
2018-07-24T07:29:12.737Z,48.52
2018-07-24T07:30:13.010Z,45.79
2018-07-24T07:31:12.706Z,47.58
2018-07-24T07:32:13.690Z,47.51
2018-07-24T07:33:12.750Z,49.45
2018-07-24T07:34:13.616Z,49.33
2018-07-24T07:35:12.675Z,49.77
2018-07-24T07:36:12.751Z,50.46
2018-07-24T07:37:12.896Z,49.38
2018-07-24T07:38:12.885Z,47.88
2018-07-24T07:39:12.884Z,48.64
2018-07-24T07:40:12.640Z,48.03
2018-07-24T07:41:12.681Z,48.91
2018-07-24T07:42:12.824Z,48.82
2018-07-24T07:43:12.751Z,49.68
2018-07-24T07:44:12.828Z,45.86
2018-07-24T07:45:13.605Z,48.52
2018-07-24T07:46:12.640Z,47.71
2018-07-24T07:47:12.616Z,49.85
2018-07-24T07:48:12.850Z,48.05
2018-07-24T07:49:12.726Z,48.55
2018-07-24T07:50:12.656Z,48.47
2018-07-24T07:51:12.921Z,46.80
2018-07-24T07:52:12.718Z,46.41
2018-07-24T07:53:12.651Z,47.66
2018-07-24T07:54:12.662Z,49.43
2018-07-24T07:55:13.774Z,46.01
2018-07-24T07:56:12.650Z,49.97
2018-07-24T07:57:12.650Z,49.95
2018-07-24T07:58:12.736Z,49.46
2018-07-24T07:59:12.783Z,44.98
2018-07-24T08:00:12.196Z,47.69
2018-07-24T08:01:12.183Z,43.98
2018-07-24T08:02:12.237Z,45.06
2018-07-24T08:03:12.361Z,45.79
2018-07-24T08:04:12.330Z,47.71
2018-07-24T08:05:10.721Z,48.08
2018-07-24T08:06:12.252Z,48.57
2018-07-24T08:07:13.118Z,46.68
2018-07-24T08:08:12.204Z,45.95
2018-07-24T08:09:12.121Z,50.54
2018-07-24T08:10:12.142Z,47.17
2018-07-24T08:11:13.107Z,45.12
2018-07-24T08:12:12.159Z,43.51
2018-07-24T08:13:12.199Z,43.41
2018-07-24T08:14:13.220Z,42.52
2018-07-24T08:15:13.321Z,44.43
2018-07-24T08:16:13.118Z,44.73
2018-07-24T08:17:12.282Z,44.43
2018-07-24T08:18:12.202Z,44.16
2018-07-24T08:19:13.274Z,45.07
2018-07-24T08:20:13.171Z,44.17
2018-07-24T08:21:12.324Z,44.34
2018-07-24T08:22:12.446Z,45.05
2018-07-24T08:23:12.098Z,44.24
2018-07-24T08:24:12.236Z,42.29
2018-07-24T08:25:13.103Z,41.33
2018-07-24T08:26:12.141Z,43.35
2018-07-24T08:27:13.204Z,44.73
2018-07-24T08:28:13.280Z,44.90
2018-07-24T08:29:12.201Z,42.98
2018-07-24T08:30:12.110Z,43.39
2018-07-24T08:31:13.313Z,46.14
2018-07-24T08:32:12.209Z,43.96
2018-07-24T08:33:12.362Z,44.43
2018-07-24T08:34:12.316Z,44.62
2018-07-24T08:35:13.186Z,44.29
2018-07-24T08:36:13.293Z,47.01
2018-07-24T08:37:13.153Z,43.95
2018-07-24T08:38:13.178Z,42.07
2018-07-24T08:39:12.160Z,41.52
2018-07-24T08:40:12.256Z,41.13
2018-07-24T08:41:12.171Z,43.02
2018-07-24T08:42:11.327Z,44.92
2018-07-24T08:43:12.210Z,43.45
2018-07-24T08:44:12.459Z,44.95
2018-07-24T08:45:12.445Z,44.32
2018-07-24T08:46:11.176Z,43.17
2018-07-24T08:47:12.422Z,43.63
2018-07-24T08:48:11.726Z,41.76
2018-07-24T08:49:11.919Z,42.09
2018-07-24T08:50:11.673Z,44.37
2018-07-24T08:51:11.719Z,44.24
2018-07-24T08:52:11.768Z,45.52
2018-07-24T08:53:11.893Z,45.73
2018-07-24T08:54:11.997Z,43.54
2018-07-24T08:55:12.126Z,44.40
2018-07-24T08:56:12.780Z,42.25
2018-07-24T08:57:11.957Z,43.54
2018-07-24T08:58:12.653Z,43.52
2018-07-24T08:59:11.816Z,45.01
2018-07-24T09:00:11.696Z,44.59
2018-07-24T09:01:11.729Z,42.44
2018-07-24T09:02:09.988Z,44.10
2018-07-24T09:03:12.761Z,42.46
2018-07-24T09:04:11.660Z,45.16
2018-07-24T09:05:12.642Z,41.99
2018-07-24T09:06:11.601Z,45.29
2018-07-24T09:07:11.638Z,39.53
2018-07-24T09:08:11.640Z,41.89
2018-07-24T09:09:11.725Z,44.55
2018-07-24T09:10:11.777Z,41.99
2018-07-24T09:11:10.775Z,41.05
2018-07-24T09:12:11.703Z,45.55
2018-07-24T09:13:09.965Z,46.01
2018-07-24T09:14:12.772Z,40.33
2018-07-24T09:15:11.837Z,45.36
2018-07-24T09:16:11.815Z,41.95
2018-07-24T09:17:11.911Z,37.57
2018-07-24T09:18:11.710Z,41.09
2018-07-24T09:19:11.700Z,41.66
2018-07-24T09:20:11.893Z,39.02
2018-07-24T09:21:11.020Z,44.07
2018-07-24T09:22:11.840Z,40.03
2018-07-24T09:23:12.876Z,41.52
2018-07-24T09:24:10.060Z,39.70
2018-07-24T09:25:11.933Z,44.19
2018-07-24T09:26:10.853Z,42.05
2018-07-24T09:27:12.058Z,41.17
2018-07-24T09:28:11.745Z,40.48
2018-07-24T09:29:11.138Z,42.14
2018-07-24T09:30:11.906Z,42.36
2018-07-24T09:31:12.797Z,39.94
2018-07-24T09:32:10.879Z,40.99
2018-07-24T09:33:10.836Z,40.88
2018-07-24T09:34:11.841Z,40.39
2018-07-24T09:35:09.830Z,38.71
2018-07-24T09:36:10.954Z,44.97
2018-07-24T09:37:11.773Z,39.78
2018-07-24T09:38:11.278Z,37.55
2018-07-24T09:39:11.224Z,39.61
2018-07-24T09:40:11.803Z,38.75
2018-07-24T09:41:11.243Z,41.27
2018-07-24T09:42:11.412Z,39.72
2018-07-24T09:43:12.403Z,45.02
2018-07-24T09:44:12.360Z,40.14
2018-07-24T09:45:11.449Z,39.51
2018-07-24T09:46:11.321Z,37.99
2018-07-24T09:47:11.218Z,41.21
2018-07-24T09:48:11.195Z,42.19
2018-07-24T09:49:12.307Z,40.58
2018-07-24T09:50:11.287Z,44.03
2018-07-24T09:51:11.319Z,38.64
2018-07-24T09:52:11.678Z,37.46
2018-07-24T09:53:11.242Z,36.20
2018-07-24T09:54:11.285Z,39.28
2018-07-24T09:55:11.655Z,37.27
2018-07-24T09:56:11.232Z,38.06
2018-07-24T09:57:11.288Z,39.18
2018-07-24T09:58:12.295Z,38.69
2018-07-24T09:59:12.819Z,37.93
2018-07-24T10:00:12.510Z,41.42
2018-07-24T10:01:11.480Z,40.33
2018-07-24T10:02:11.694Z,41.58
2018-07-24T10:03:12.301Z,41.28
2018-07-24T10:04:12.481Z,40.01
2018-07-24T10:05:11.533Z,40.68
2018-07-24T10:06:11.291Z,42.41
2018-07-24T10:07:12.267Z,37.05
2018-07-24T10:08:11.321Z,37.33
2018-07-24T10:09:11.355Z,39.96
2018-07-24T10:10:11.525Z,39.24
2018-07-24T10:11:11.936Z,38.93
2018-07-24T10:12:11.478Z,37.93
2018-07-24T10:13:12.327Z,36.08
2018-07-24T10:14:12.447Z,37.37
2018-07-24T10:15:11.241Z,38.73
2018-07-24T10:16:12.189Z,38.44
2018-07-24T10:17:12.440Z,36.61
2018-07-24T10:18:11.240Z,37.29
2018-07-24T10:19:12.279Z,38.05
2018-07-24T10:20:11.378Z,40.66
2018-07-24T10:21:12.459Z,36.38
2018-07-24T10:22:12.278Z,34.92
2018-07-24T10:23:12.210Z,38.93
2018-07-24T10:24:12.346Z,40.85
2018-07-24T10:25:11.330Z,37.60
2018-07-24T10:26:11.238Z,37.22
2018-07-24T10:27:10.204Z,38.44
2018-07-24T10:28:11.359Z,35.76
2018-07-24T10:29:10.401Z,36.18
2018-07-24T10:30:11.978Z,36.28
2018-07-24T10:31:11.729Z,36.30
2018-07-24T10:32:10.942Z,37.41
2018-07-24T10:33:11.772Z,36.37
2018-07-24T10:34:11.694Z,37.41
2018-07-24T10:35:10.809Z,39.49
2018-07-24T10:36:09.223Z,38.49
2018-07-24T10:37:10.677Z,37.37
2018-07-24T10:38:11.831Z,41.63
2018-07-24T10:39:10.707Z,38.40
2018-07-24T10:40:11.678Z,39.65
2018-07-24T10:41:10.795Z,37.77
2018-07-24T10:42:10.871Z,36.90
2018-07-24T10:43:10.725Z,36.25
2018-07-24T10:44:10.771Z,37.11
2018-07-24T10:45:11.269Z,38.51
2018-07-24T10:46:10.770Z,37.32
2018-07-24T10:47:10.723Z,37.12
2018-07-24T10:48:11.709Z,37.71
2018-07-24T10:49:10.818Z,38.02
2018-07-24T10:50:10.715Z,39.02
2018-07-24T10:51:10.773Z,37.16
2018-07-24T10:52:11.813Z,39.76
2018-07-24T10:53:11.767Z,37.99
2018-07-24T10:54:11.766Z,38.43
2018-07-24T10:55:10.753Z,36.58
2018-07-24T10:56:11.028Z,35.98
2018-07-24T10:57:10.635Z,37.23
2018-07-24T10:58:10.813Z,37.31
2018-07-24T10:59:10.831Z,39.61
2018-07-24T11:00:10.945Z,36.12
2018-07-24T11:01:10.937Z,37.00
2018-07-24T11:02:10.599Z,35.06
2018-07-24T11:03:08.972Z,36.14
2018-07-24T11:04:11.665Z,35.71
2018-07-24T11:05:10.765Z,34.97
2018-07-24T11:06:10.818Z,36.49
2018-07-24T11:07:11.731Z,38.82
2018-07-24T11:08:10.957Z,42.41
2018-07-24T11:09:10.766Z,37.25
2018-07-24T11:10:10.848Z,39.00
2018-07-24T11:11:10.761Z,37.99
2018-07-24T11:12:10.728Z,41.20
2018-07-24T11:13:11.901Z,38.57
2018-07-24T11:14:10.999Z,37.21
2018-07-24T11:15:11.793Z,38.40
2018-07-24T11:16:10.805Z,40.01
2018-07-24T11:17:11.927Z,37.76
2018-07-24T11:18:10.748Z,38.54
2018-07-24T11:19:08.859Z,39.69
2018-07-24T11:20:10.706Z,37.54
2018-07-24T11:21:10.886Z,38.50
2018-07-24T11:22:12.015Z,38.87
2018-07-24T11:23:11.724Z,39.34
2018-07-24T11:24:11.938Z,37.01
2018-07-24T11:25:10.790Z,36.46
2018-07-24T11:26:10.779Z,36.83
2018-07-24T11:27:09.917Z,35.80
2018-07-24T11:28:10.650Z,35.89
2018-07-24T11:29:10.762Z,36.49
2018-07-24T11:30:08.697Z,38.62
2018-07-24T11:31:10.294Z,34.92
2018-07-24T11:32:10.321Z,38.46
2018-07-24T11:33:10.345Z,37.19
2018-07-24T11:34:10.223Z,36.43
2018-07-24T11:35:10.161Z,38.38
2018-07-24T11:36:10.298Z,40.17
2018-07-24T11:37:10.350Z,38.91
2018-07-24T11:38:10.569Z,35.46
2018-07-24T11:39:11.347Z,37.21
2018-07-24T11:40:10.582Z,35.75
2018-07-24T11:41:10.336Z,39.92
2018-07-24T11:42:10.288Z,36.57
2018-07-24T11:43:11.448Z,36.57
2018-07-24T11:44:10.354Z,36.05
2018-07-24T11:45:10.366Z,35.16
2018-07-24T11:46:09.544Z,35.94
2018-07-24T11:47:10.488Z,34.77
2018-07-24T11:48:10.685Z,34.11
2018-07-24T11:49:09.397Z,37.24
2018-07-24T11:50:10.331Z,37.88
2018-07-24T11:51:10.326Z,34.30
2018-07-24T11:52:11.247Z,35.78
2018-07-24T11:53:10.321Z,37.22
2018-07-24T11:54:10.270Z,37.32
2018-07-24T11:55:11.350Z,36.04
2018-07-24T11:56:10.277Z,36.22
2018-07-24T11:57:08.852Z,35.82
2018-07-24T11:58:10.446Z,37.08
2018-07-24T11:59:10.408Z,33.83
2018-07-24T12:00:10.352Z,36.00
2018-07-24T12:01:10.194Z,36.94
2018-07-24T12:02:10.394Z,34.03
2018-07-24T12:03:11.276Z,34.87
2018-07-24T12:04:10.229Z,35.76
2018-07-24T12:05:11.227Z,36.05
2018-07-24T12:06:10.258Z,36.04
2018-07-24T12:07:10.349Z,34.66
2018-07-24T12:08:10.231Z,37.80
2018-07-24T12:09:10.298Z,35.29
2018-07-24T12:10:11.273Z,34.80
2018-07-24T12:11:10.340Z,37.24
2018-07-24T12:12:10.476Z,36.96
2018-07-24T12:13:08.694Z,35.00
2018-07-24T12:14:10.373Z,34.88
2018-07-24T12:15:11.244Z,34.22
2018-07-24T12:16:10.305Z,38.67
2018-07-24T12:17:10.430Z,37.86
2018-07-24T12:18:10.362Z,34.35
2018-07-24T12:19:10.325Z,34.56
2018-07-24T12:20:10.220Z,34.59
2018-07-24T12:21:11.339Z,34.30
2018-07-24T12:22:10.221Z,35.25
2018-07-24T12:23:10.273Z,34.50
2018-07-24T12:24:10.255Z,34.42
2018-07-24T12:25:11.231Z,33.46
2018-07-24T12:26:11.338Z,35.52
2018-07-24T12:27:10.268Z,35.00
2018-07-24T12:28:10.623Z,35.61
2018-07-24T12:29:08.472Z,36.41
2018-07-24T12:30:09.191Z,36.23
2018-07-24T12:31:09.908Z,37.21
2018-07-24T12:32:09.482Z,39.78
2018-07-24T12:33:10.866Z,39.90
2018-07-24T12:34:10.816Z,37.79
2018-07-24T12:35:09.780Z,39.31
2018-07-24T12:36:10.782Z,39.09
2018-07-24T12:37:10.827Z,38.04
2018-07-24T12:38:09.892Z,36.72
2018-07-24T12:39:09.808Z,35.66
2018-07-24T12:40:09.733Z,36.13
2018-07-24T12:41:09.768Z,36.00
2018-07-24T12:42:10.796Z,36.14
2018-07-24T12:43:09.701Z,35.61
2018-07-24T12:44:09.923Z,34.68
2018-07-24T12:45:08.198Z,34.47
2018-07-24T12:46:09.683Z,35.31
2018-07-24T12:47:09.955Z,34.92
2018-07-24T12:48:09.500Z,34.01
2018-07-24T12:49:09.745Z,32.45
2018-07-24T12:50:10.702Z,34.08
2018-07-24T12:51:09.110Z,34.40
2018-07-24T12:52:10.051Z,34.34
2018-07-24T12:53:07.998Z,34.44